Time;durP1;ratioP1;P1;durP2;ratioP2;P2;SDS_P1;SDS_P2;PMS_P1;PMS_P2;Temp;Humidity;BMP_temperature;BMP_pressure;BME280_temperature;BME280_humidity;BME280_pressure;Samples;Min_cycle;Max_cycle;Signal;HPM_P1;HPM_P2
2022/08/20 00:00:17;;;;;;;8.58;5.10;;;;;;;16.67;100.00;99158.72;1734948;82;21030;-69
2022/08/20 00:02:47;;;;;;;8.93;5.70;;;;;;;16.67;100.00;99167.91;1734585;82;20982;-69
2022/08/20 00:05:15;;;;;;;8.38;5.62;;;;;;;16.67;100.00;99164.45;1716052;82;21050;-69
2022/08/20 00:07:41;;;;;;;8.40;5.37;;;;;;;16.68;100.00;99160.88;1734765;82;20983;-69
2022/08/20 00:10:08;;;;;;;9.58;5.55;;;;;;;16.69;100.00;99163.87;1715998;82;21129;-69
2022/08/20 00:12:35;;;;;;;7.83;5.28;;;;;;;16.69;100.00;99166.49;1734672;82;21483;-69
2022/08/20 00:15:03;;;;;;;7.85;5.70;;;;;;;16.67;100.00;99167.08;1734710;82;21074;-69
2022/08/20 00:17:36;;;;;;;9.43;5.62;;;;;;;16.63;100.00;99170.39;1734700;82;20947;-69
2022/08/20 00:19:58;;;;;;;6.62;5.20;;;;;;;16.61;100.00;99169.62;1731748;81;21451;-69
2022/08/20 00:22:26;;;;;;;10.13;4.87;;;;;;;16.61;100.00;99167.47;1734862;82;21124;-68
2022/08/20 00:24:53;;;;;;;6.72;4.60;;;;;;;16.60;100.00;99165.79;1735094;82;21005;-68
2022/08/20 00:27:19;;;;;;;5.83;5.28;;;;;;;16.59;100.00;99171.52;1734751;82;20987;-68
2022/08/20 00:29:47;;;;;;;6.00;5.33;;;;;;;16.58;100.00;99182.16;1734683;82;20931;-69
2022/08/20 00:32:13;;;;;;;9.18;5.37;;;;;;;16.56;100.00;99178.31;1734769;82;21565;-68
2022/08/20 00:34:41;;;;;;;5.12;4.60;;;;;;;16.54;100.00;99173.17;1734736;82;21420;-68
2022/08/20 00:37:08;;;;;;;6.15;4.95;;;;;;;16.56;100.00;99174.86;1715624;82;20963;-68
2022/08/20 00:39:35;;;;;;;9.78;5.75;;;;;;;16.57;100.00;99177.84;1734763;82;21035;-68
2022/08/20 00:42:02;;;;;;;8.28;5.55;;;;;;;16.54;100.00;99173.17;1734897;82;20943;-68
2022/08/20 00:44:28;;;;;;;11.12;5.00;;;;;;;16.54;100.00;99169.71;1734664;82;21442;-69
2022/08/20 00:46:57;;;;;;;6.03;5.05;;;;;;;16.58;100.00;99172.48;1738384;82;21380;-70
2022/08/20 00:49:30;;;;;;;8.35;4.85;;;;;;;16.62;100.00;99171.77;1739932;82;21034;-69
2022/08/20 00:52:05;;;;;;;16.73;5.75;;;;;;;16.64;100.00;99162.87;1740138;82;21034;-69
2022/08/20 00:54:51;;;;;;;6.10;5.55;;;;;;;16.68;100.00;99160.88;1713338;82;21513;-69
2022/08/20 00:57:28;;;;;;;7.58;5.33;;;;;;;16.69;100.00;99166.49;1736236;82;20954;-68
2022/08/20 00:59:55;;;;;;;5.25;4.70;;;;;;;16.70;100.00;99170.33;1740172;82;21778;-69
2022/08/20 01:02:24;;;;;;;8.25;5.42;;;;;;;16.68;100.00;99161.72;1739981;82;21017;-69
2022/08/20 01:04:53;;;;;;;7.70;5.40;;;;;;;16.69;100.00;99167.33;1740018;82;20943;-69
2022/08/20 01:07:27;;;;;;;8.95;5.40;;;;;;;16.70;100.00;99169.48;1740028;82;20938;-70
2022/08/20 01:09:50;;;;;;;6.47;4.70;;;;;;;16.70;100.00;99175.58;1739232;82;20986;-68
2022/08/20 01:12:18;;;;;;;7.33;4.90;;;;;;;16.72;100.00;99167.59;1740006;82;21947;-68
2022/08/20 01:14:45;;;;;;;6.92;5.17;;;;;;;16.73;100.00;99170.11;1739896;82;21485;-68
2022/08/20 01:17:16;;;;;;;7.28;5.42;;;;;;;16.76;100.00;99173.84;1739920;82;20967;-68
2022/08/20 01:19:54;;;;;;;6.35;5.05;;;;;;;16.82;100.00;99179.94;1739934;81;21042;-68
2022/08/20 01:25:31;;;;;;;5.83;4.75;;;;;;;16.93;100.00;99180.98;1739986;82;21543;-68
2022/08/20 01:27:58;;;;;;;6.65;5.20;;;;;;;16.96;100.00;99178.97;1723277;82;20931;-68
2022/08/20 01:30:27;;;;;;;9.80;5.70;;;;;;;17.01;100.00;99175.98;1739914;82;20987;-69
2022/08/20 01:32:54;;;;;;;5.22;4.70;;;;;;;17.05;100.00;99171.72;1740134;82;21030;-68
2022/08/20 01:35:21;;;;;;;10.18;4.80;;;;;;;17.10;100.00;99176.65;1740008;81;20943;-69
2022/08/20 01:37:48;;;;;;;7.87;5.15;;;;;;;17.12;100.00;99172.97;1712684;82;21107;-69
2022/08/20 01:40:18;;;;;;;8.35;5.17;;;;;;;17.11;100.00;99173.08;1739864;82;21041;-69
2022/08/20 01:42:45;;;;;;;8.08;5.30;;;;;;;17.09;100.00;99174.97;1739967;82;21026;-69
2022/08/20 01:45:12;;;;;;;8.08;5.80;;;;;;;17.09;100.00;99171.87;1739973;81;21097;-68
2022/08/20 01:47:39;;;;;;;5.75;4.70;;;;;;;17.08;100.00;99174.61;1717285;82;20949;-68
2022/08/20 01:50:17;;;;;;;7.22;5.15;;;;;;;17.09;100.00;99172.34;1742869;82;21183;-68
2022/08/20 01:52:56;;;;;;;6.37;5.40;;;;;;;17.13;100.00;99172.02;1718088;82;21470;-68
2022/08/20 01:55:23;;;;;;;7.22;5.45;;;;;;;17.16;100.00;99167.85;1738334;82;21002;-68
2022/08/20 01:57:49;;;;;;;6.42;5.33;;;;;;;17.15;100.00;99171.43;1742950;82;20974;-68
2022/08/20 02:00:17;;;;;;;7.37;4.95;;;;;;;17.14;100.00;99173.69;1742910;82;21495;-69
2022/08/20 02:02:45;;;;;;;7.35;5.03;;;;;;;17.11;100.00;99173.91;1742827;82;21831;-69
2022/08/20 02:05:11;;;;;;;6.55;5.10;;;;;;;17.12;100.00;99171.65;1742735;81;21419;-68
2022/08/20 02:07:38;;;;;;;10.63;5.25;;;;;;;17.11;100.00;99170.45;1742824;81;20939;-68
2022/08/20 02:10:08;;;;;;;13.95;5.67;;;;;;;17.12;100.00;99169.02;1742913;82;21040;-68
2022/08/20 02:12:36;;;;;;;6.53;5.15;;;;;;;17.14;100.00;99168.91;1742866;82;20971;-68
2022/08/20 02:15:07;;;;;;;5.47;4.90;;;;;;;17.13;100.00;99166.76;1742853;82;21544;-68
2022/08/20 02:17:34;;;;;;;11.05;5.62;;;;;;;17.12;100.00;99162.45;1742784;82;20994;-68
2022/08/20 02:20:06;;;;;;;7.35;5.75;;;;;;;17.13;100.00;99159.34;1742796;81;20951;-68
2022/08/20 02:22:53;;;;;;;14.33;5.33;;;;;;;17.11;100.00;99152.89;1742927;82;20978;-68
2022/08/20 02:25:22;;;;;;;7.72;5.30;;;;;;;17.10;100.00;99153.84;1741939;82;20979;-69
2022/08/20 02:27:50;;;;;;;7.47;5.50;;;;;;;17.08;100.00;99147.02;1742829;82;21118;-68
2022/08/20 02:30:21;;;;;;;6.78;5.85;;;;;;;17.05;100.00;99145.45;1742766;82;20939;-68
2022/08/20 02:32:48;;;;;;;8.53;5.92;;;;;;;17.05;100.00;99145.92;1739587;82;21002;-69
2022/08/20 02:35:15;;;;;;;6.75;5.35;;;;;;;17.04;100.00;99142.45;1742778;82;21025;-68
2022/08/20 02:37:42;;;;;;;6.30;5.53;;;;;;;17.05;100.00;99135.41;1742903;82;21589;-69
2022/08/20 02:40:14;;;;;;;10.50;6.15;;;;;;;17.06;100.00;99131.36;1743032;82;21552;-69
2022/08/20 02:42:42;;;;;;;6.97;5.45;;;;;;;17.04;100.00;99133.73;1743073;82;21476;-69
2022/08/20 02:45:14;;;;;;;7.33;6.10;;;;;;;16.98;100.00;99133.73;1742956;82;20939;-69
2022/08/20 02:47:45;;;;;;;9.30;5.90;;;;;;;16.93;100.00;99132.37;1737127;82;21090;-69
2022/08/20 02:50:14;;;;;;;5.90;5.12;;;;;;;16.83;100.00;99137.45;1735379;81;20947;-69
2022/08/20 02:52:42;;;;;;;10.30;5.72;;;;;;;16.74;100.00;99133.71;1735366;82;21783;-69
2022/08/20 02:55:09;;;;;;;7.92;5.72;;;;;;;16.67;100.00;99136.41;1735254;82;20939;-69
2022/08/20 02:57:37;;;;;;;12.25;6.50;;;;;;;16.63;100.00;99132.75;1735335;82;20980;-69
2022/08/20 03:00:11;;;;;;;8.90;6.25;;;;;;;16.58;100.00;99121.29;1735280;82;21042;-69
2022/08/20 03:02:39;;;;;;;9.28;6.15;;;;;;;16.56;100.00;99123.66;1732381;82;20955;-69
2022/08/20 03:05:07;;;;;;;6.75;5.62;;;;;;;16.55;100.00;99124.13;1735419;82;21614;-69
2022/08/20 03:07:41;;;;;;;5.97;5.47;;;;;;;16.56;100.00;99121.88;1735234;82;21530;-69
2022/08/20 03:10:09;;;;;;;8.45;6.22;;;;;;;16.58;100.00;99125.23;1734192;82;20959;-68
2022/08/20 03:12:37;;;;;;;7.58;5.72;;;;;;;16.60;100.00;99121.16;1710422;82;21089;-68
2022/08/20 03:15:06;;;;;;;5.80;5.30;;;;;;;16.65;100.00;99116.45;1735339;82;21046;-69
2022/08/20 03:17:32;;;;;;;6.75;6.15;;;;;;;16.76;100.00;99119.16;1735290;82;21796;-69
2022/08/20 03:19:59;;;;;;;11.10;6.55;;;;;;;16.93;100.00;99118.77;1735219;81;20995;-68
2022/08/20 03:22:25;;;;;;;6.62;6.03;;;;;;;17.11;100.00;99123.14;1735352;82;21003;-69
2022/08/20 03:24:52;;;;;;;8.03;6.17;;;;;;;17.33;100.00;99131.59;1735257;82;20963;-68
2022/08/20 03:27:18;;;;;;;12.95;6.08;;;;;;;17.58;100.00;99126.66;1735322;82;20983;-68
2022/08/20 03:29:44;;;;;;;7.87;5.55;;;;;;;17.85;100.00;99128.04;1735346;82;21108;-68
2022/08/20 03:32:11;;;;;;;11.40;6.58;;;;;;;18.13;100.00;99121.49;1735280;82;21422;-69
2022/08/20 03:34:37;;;;;;;7.97;6.03;;;;;;;18.43;100.00;99119.55;1735771;82;20951;-69
2022/08/20 03:37:04;;;;;;;6.83;6.20;;;;;;;18.75;100.00;99126.25;1735295;82;21021;-69
2022/08/20 03:39:30;;;;;;;7.67;5.67;;;;;;;19.08;100.00;99129.25;1735237;81;20991;-69
2022/08/20 03:41:57;;;;;;;7.83;6.20;;;;;;;19.40;100.00;99127.91;1735267;82;21497;-69
2022/08/20 03:44:25;;;;;;;9.60;6.70;;;;;;;19.65;100.00;99133.33;1735624;82;21052;-69
2022/08/20 03:46:51;;;;;;;10.93;6.25;;;;;;;19.77;100.00;99123.08;1735206;82;21016;-68
2022/08/20 03:49:18;;;;;;;8.65;6.78;;;;;;;19.89;100.00;99119.86;1735380;82;21423;-68
2022/08/20 03:51:44;;;;;;;8.75;5.90;;;;;;;20.05;100.00;99118.89;1735310;82;21006;-68
2022/08/20 03:54:11;;;;;;;17.60;6.25;;;;;;;20.29;100.00;99127.83;1735315;81;21167;-68
2022/08/20 03:56:37;;;;;;;9.60;5.92;;;;;;;20.60;98.66;99125.52;1735302;82;21419;-68
2022/08/20 03:59:04;;;;;;;9.23;5.37;;;;;;;20.94;97.13;99137.92;1735231;82;21003;-68
2022/08/20 04:01:31;;;;;;;14.00;6.45;;;;;;;21.31;95.01;99131.49;1735377;82;20986;-68
2022/08/20 04:03:57;;;;;;;6.65;5.97;;;;;;;21.71;92.84;99126.50;1735388;82;20951;-68
2022/08/20 04:06:25;;;;;;;12.68;5.83;;;;;;;22.08;88.87;99123.09;1735366;82;21120;-69
2022/08/20 04:08:52;;;;;;;7.47;6.25;;;;;;;22.29;86.57;99123.70;1735297;82;21007;-69
2022/08/20 04:11:19;;;;;;;9.58;5.70;;;;;;;22.46;86.04;99108.34;1735260;82;21419;-69
2022/08/20 04:13:45;;;;;;;6.83;6.20;;;;;;;22.75;83.91;99115.30;1735352;82;21023;-69
2022/08/20 04:16:12;;;;;;;7.05;5.75;;;;;;;22.97;81.83;99115.75;1735282;82;21003;-70
2022/08/20 04:18:38;;;;;;;11.97;5.67;;;;;;;23.25;79.86;99119.63;1735173;81;21111;-69
2022/08/20 04:21:05;;;;;;;6.17;5.58;;;;;;;23.31;77.68;99121.19;1735186;82;21030;-70
2022/08/20 04:23:32;;;;;;;7.03;5.70;;;;;;;23.20;77.19;99114.77;1735302;82;21018;-69
2022/08/20 04:25:59;;;;;;;6.78;5.80;;;;;;;23.13;77.49;99115.06;1735309;82;20962;-69
2022/08/20 04:28:27;;;;;;;6.20;5.67;;;;;;;23.13;76.55;99119.53;1735290;82;21039;-69
2022/08/20 04:30:55;;;;;;;7.87;6.08;;;;;;;23.03;76.64;99134.18;1735257;82;21772;-69
2022/08/20 04:33:23;;;;;;;7.97;5.67;;;;;;;23.08;77.30;99119.98;1735187;82;20987;-69
2022/08/20 04:35:50;;;;;;;6.72;5.17;;;;;;;23.29;77.72;99115.69;1735225;82;21029;-69
2022/08/20 04:38:18;;;;;;;9.75;6.17;;;;;;;23.51;75.77;99113.89;1735219;82;21455;-69
2022/08/20 04:40:56;;;;;;;6.15;5.53;;;;;;;23.57;74.47;99115.13;1735265;82;21450;-69
2022/08/20 04:43:25;;;;;;;9.23;6.42;;;;;;;23.57;74.52;99119.11;1735328;82;21111;-69
2022/08/20 04:45:53;;;;;;;7.12;5.28;;;;;;;23.63;74.87;99120.63;1734955;82;21000;-69
2022/08/20 04:48:22;;;;;;;6.55;5.90;;;;;;;23.88;74.19;99123.47;1734666;82;20971;-69
2022/08/20 04:50:50;;;;;;;6.50;5.08;;;;;;;24.09;73.07;99125.75;1692645;82;21002;-69
2022/08/20 04:53:17;;;;;;;7.62;6.08;;;;;;;24.31;72.33;99122.58;1716046;82;21007;-69
2022/08/20 04:55:44;;;;;;;7.03;5.58;;;;;;;24.34;71.23;99123.59;1734728;82;21111;-68
2022/08/20 04:58:17;;;;;;;6.80;5.97;;;;;;;24.08;70.58;99128.90;1715912;82;20943;-69
2022/08/20 05:00:52;;;;;;;6.80;5.67;;;;;;;23.33;73.63;99128.51;1734369;82;21069;-69
2022/08/20 05:03:19;;;;;;;7.17;5.87;;;;;;;23.33;73.63;99128.51;1734805;82;21002;-68
2022/08/20 05:05:45;;;;;;;7.58;5.87;;;;;;;23.34;74.19;99127.52;1734809;82;20979;-68
2022/08/20 05:08:13;;;;;;;6.58;5.33;;;;;;;23.32;74.47;99137.45;1734677;82;21907;-69
2022/08/20 05:10:39;;;;;;;7.20;5.95;;;;;;;23.19;74.18;99136.98;1734596;82;20987;-69
2022/08/20 05:13:07;;;;;;;7.05;6.33;;;;;;;22.90;74.61;99144.33;1734732;82;21034;-69
2022/08/20 05:15:34;;;;;;;8.38;7.40;;;;;;;22.42;76.18;99133.46;1734713;82;21042;-69
2022/08/20 05:18:01;;;;;;;7.70;6.92;;;;;;;21.92;78.04;99135.58;1734652;81;20951;-69
2022/08/20 05:20:30;;;;;;;6.25;5.65;;;;;;;21.46;80.87;99121.31;1734790;81;21507;-69
2022/08/20 05:22:58;;;;;;;7.30;6.25;;;;;;;21.13;83.08;99129.65;1734646;82;20931;-69
2022/08/20 05:25:28;;;;;;;7.37;6.78;;;;;;;20.95;85.05;99126.86;1734669;82;21002;-68
2022/08/20 05:27:59;;;;;;;9.58;8.70;;;;;;;20.89;86.41;99132.68;1715790;81;39481;-69
2022/08/20 05:30:32;;;;;;;10.15;8.73;;;;;;;20.89;87.27;99127.39;1734800;81;21061;-69
2022/08/20 05:32:59;;;;;;;;;;;;;;;20.88;87.41;99124.40;1737301;82;21139;-68
2022/08/20 05:35:28;;;;;;;9.43;8.53;;;;;;;20.90;87.73;99125.10;1734759;81;20140;-69
2022/08/20 05:37:56;;;;;;;11.35;10.35;;;;;;;20.97;87.40;99124.42;1734814;82;20995;-70
2022/08/20 05:40:23;;;;;;;12.47;11.15;;;;;;;20.98;87.00;99118.66;1734632;82;21061;-70
2022/08/20 05:42:50;;;;;;;11.55;10.53;;;;;;;20.92;86.82;99123.16;1734706;82;20959;-70
2022/08/20 05:45:18;;;;;;;12.18;11.00;;;;;;;20.86;87.63;99112.64;1734673;82;21229;-70
2022/08/20 05:47:44;;;;;;;10.70;9.80;;;;;;;20.91;88.19;99118.36;1734495;82;20995;-68
2022/08/20 05:50:12;;;;;;;11.45;10.45;;;;;;;20.98;87.82;99124.75;1734680;82;20979;-68
2022/08/20 05:52:39;;;;;;;11.20;10.20;;;;;;;20.96;87.64;99118.79;1734671;82;20947;-68
2022/08/20 05:55:07;;;;;;;12.10;10.60;;;;;;;20.94;88.38;99126.02;1734651;81;21125;-68
2022/08/20 05:57:33;;;;;;;10.85;9.90;;;;;;;20.99;88.71;99122.94;1734626;82;21130;-68
2022/08/20 06:00:01;;;;;;;11.85;10.85;;;;;;;21.04;88.42;99118.56;1734593;82;20947;-68
2022/08/20 06:05:18;;;;;;;11.63;10.58;;;;;;;20.93;88.36;99119.55;1734621;82;21019;-69
2022/08/20 06:07:46;;;;;;;10.93;10.03;;;;;;;20.83;89.16;99120.84;1734761;82;21498;-69
2022/08/20 06:10:13;;;;;;;11.50;10.30;;;;;;;20.72;89.41;99120.13;1734694;82;21226;-69
2022/08/20 06:12:40;;;;;;;11.18;10.28;;;;;;;20.62;90.51;99118.30;1734778;82;20979;-68
2022/08/20 06:15:08;;;;;;;10.03;9.23;;;;;;;20.61;91.79;99118.42;1734786;82;21017;-70
2022/08/20 06:17:35;;;;;;;10.35;9.55;;;;;;;20.76;92.22;99124.18;1734796;82;21526;-69
2022/08/20 06:20:05;;;;;;;11.25;10.35;;;;;;;20.94;90.69;99122.05;1734808;81;20979;-69
2022/08/20 06:22:34;;;;;;;10.93;9.93;;;;;;;21.08;89.96;99134.52;1734969;82;20975;-69
2022/08/20 06:25:01;;;;;;;12.18;11.22;;;;;;;21.13;88.49;99126.52;1734806;81;20967;-69
2022/08/20 06:27:28;;;;;;;13.40;11.28;;;;;;;21.05;87.26;99134.78;1734818;81;21082;-69
2022/08/20 06:29:54;;;;;;;12.23;11.03;;;;;;;20.94;87.54;99138.41;1734807;82;21002;-69
2022/08/20 06:32:23;;;;;;;11.35;10.38;;;;;;;20.86;88.04;99144.84;1734856;82;20986;-69
2022/08/20 06:34:50;;;;;;;11.78;10.58;;;;;;;20.81;88.78;99134.67;1734985;82;21138;-68
2022/08/20 06:37:20;;;;;;;12.37;11.30;;;;;;;20.93;88.91;99141.53;1734767;82;21023;-68
2022/08/20 06:39:47;;;;;;;9.60;8.70;;;;;;;21.06;89.09;99130.68;1734794;82;21451;-69
2022/08/20 06:42:13;;;;;;;8.60;7.87;;;;;;;21.22;87.90;99129.67;1734764;82;21069;-68
2022/08/20 06:44:40;;;;;;;6.83;6.22;;;;;;;21.40;87.42;99132.45;1734785;82;20947;-68
2022/08/20 06:47:08;;;;;;;6.58;5.97;;;;;;;21.49;84.14;99140.88;1734673;82;20938;-68
2022/08/20 06:49:35;;;;;;;6.58;6.08;;;;;;;21.49;84.57;99138.23;1735164;82;20986;-68
2022/08/20 06:52:03;;;;;;;6.53;6.03;;;;;;;21.51;84.22;99132.80;1735348;82;21537;-69
2022/08/20 06:54:31;;;;;;;10.20;6.87;;;;;;;21.53;83.17;99140.11;1735306;82;20935;-69
2022/08/20 06:56:58;;;;;;;6.58;5.87;;;;;;;21.50;83.25;99137.26;1735413;82;21072;-70
2022/08/20 06:59:25;;;;;;;6.03;5.53;;;;;;;21.57;84.16;99144.16;1735292;82;21132;-70
2022/08/20 07:01:55;;;;;;;4.92;4.53;;;;;;;21.74;83.87;99142.11;1735298;82;21156;-68
2022/08/20 07:04:21;;;;;;;10.53;4.97;;;;;;;21.86;83.20;99137.47;1735133;82;20992;-68
2022/08/20 07:06:50;;;;;;;5.62;4.90;;;;;;;21.88;82.33;99141.65;1735277;82;21440;-70
2022/08/20 07:09:19;;;;;;;5.50;4.95;;;;;;;21.81;81.63;99137.05;1735366;82;20987;-69
2022/08/20 07:11:47;;;;;;;7.25;5.80;;;;;;;21.65;81.80;99146.91;1735293;82;21132;-70
2022/08/20 07:14:16;;;;;;;6.85;4.87;;;;;;;21.51;82.96;99149.52;1735313;81;20975;-69
2022/08/20 07:16:45;;;;;;;4.53;4.10;;;;;;;21.49;83.98;99142.20;1735441;82;21541;-70
2022/08/20 07:19:12;;;;;;;4.42;3.85;;;;;;;21.51;84.38;99138.93;1735353;81;20991;-69
2022/08/20 07:21:40;;;;;;;4.87;3.85;;;;;;;21.57;83.97;99137.05;1735327;82;21395;-69
2022/08/20 07:24:08;;;;;;;4.10;3.70;;;;;;;21.67;81.90;99134.38;1710418;82;21066;-68
2022/08/20 07:26:35;;;;;;;5.95;3.58;;;;;;;21.74;81.02;99132.01;1735187;82;21047;-71
2022/08/20 07:29:02;;;;;;;4.33;3.58;;;;;;;21.78;81.89;99121.48;1735668;82;21427;-69
2022/08/20 07:34:15;;;;;;;3.22;2.90;;;;;;;21.92;81.05;99116.56;1735523;82;20999;-69
2022/08/20 07:36:42;;;;;;;4.20;3.17;;;;;;;22.01;79.15;99130.77;1735407;82;21720;-69
2022/08/20 07:39:10;;;;;;;4.30;3.37;;;;;;;22.02;79.54;99136.41;1735156;82;21416;-69
2022/08/20 07:41:36;;;;;;;4.30;3.08;;;;;;;22.10;78.61;99129.08;1735285;82;21002;-69
2022/08/20 07:44:03;;;;;;;8.68;3.40;;;;;;;22.17;77.63;99127.04;1735627;82;21081;-69
2022/08/20 07:46:30;;;;;;;3.77;3.05;;;;;;;22.29;77.18;99127.67;1735268;82;20951;-69
2022/08/20 07:48:56;;;;;;;2.92;2.60;;;;;;;22.44;77.66;99119.58;1735203;82;21540;-69
2022/08/20 07:51:23;;;;;;;6.87;3.35;;;;;;;22.58;74.95;99118.27;1735275;82;21531;-69
2022/08/20 07:53:50;;;;;;;3.98;3.02;;;;;;;22.63;72.72;99115.98;1735214;82;21089;-69
2022/08/20 07:56:21;;;;;;;2.80;2.60;;;;;;;22.69;72.81;99121.54;1735298;82;21050;-69
2022/08/20 07:58:52;;;;;;;3.27;2.98;;;;;;;22.79;72.76;99124.14;1735225;82;21443;-69
2022/08/20 08:01:24;;;;;;;4.12;3.08;;;;;;;22.92;73.21;99125.13;1735275;82;21107;-69
2022/08/20 08:03:51;;;;;;;3.10;2.90;;;;;;;23.02;71.41;99116.10;1735334;82;20987;-69
2022/08/20 08:06:19;;;;;;;3.92;3.27;;;;;;;23.04;71.77;99104.02;1735295;82;20995;-69
2022/08/20 08:08:47;;;;;;;4.45;3.35;;;;;;;23.05;71.77;99109.66;1735235;82;20999;-68
2022/08/20 08:11:13;;;;;;;3.72;3.42;;;;;;;23.02;71.40;99114.78;1735247;82;21069;-68
2022/08/20 08:13:41;;;;;;;4.40;3.95;;;;;;;22.92;72.19;99112.70;1710649;82;21408;-68
2022/08/20 08:16:08;;;;;;;4.12;3.65;;;;;;;22.88;72.80;99108.67;1735354;82;21395;-67
2022/08/20 08:18:43;;;;;;;3.25;3.00;;;;;;;22.94;73.44;99113.88;1735581;81;21031;-68
2022/08/20 08:21:11;;;;;;;3.08;2.77;;;;;;;23.07;71.51;99118.31;1729493;82;20958;-68
2022/08/20 08:23:43;;;;;;;3.75;2.70;;;;;;;23.18;69.56;99115.94;1735344;82;21007;-69
2022/08/20 08:26:08;;;;;;;3.12;2.50;;;;;;;23.29;68.02;99111.71;1735202;82;21120;-69
2022/08/20 08:28:35;;;;;;;2.85;2.65;;;;;;;23.42;68.61;99120.59;1735160;82;21473;-69
2022/08/20 08:31:02;;;;;;;3.22;2.92;;;;;;;23.53;66.78;99122.56;1735225;82;20931;-69
2022/08/20 08:33:31;;;;;;;2.92;2.42;;;;;;;23.60;66.57;99111.65;1735253;82;21066;-69
2022/08/20 08:36:08;;;;;;;3.75;2.60;;;;;;;23.73;66.95;99106.44;1735339;82;21034;-69
2022/08/20 08:38:38;;;;;;;2.70;2.17;;;;;;;23.92;66.30;99112.38;1734980;81;21155;-69
2022/08/20 08:41:31;;;;;;;3.83;2.75;;;;;;;24.09;65.13;99119.10;1735256;82;20997;-69
2022/08/20 08:44:09;;;;;;;3.75;2.33;;;;;;;24.02;65.16;99113.58;1735361;82;20990;-69
2022/08/20 08:46:43;;;;;;;3.52;2.22;;;;;;;23.86;65.45;99121.45;1731753;82;21470;-69
2022/08/20 08:49:21;;;;;;;2.47;2.20;;;;;;;23.77;66.88;99119.26;1735129;81;20982;-69
2022/08/20 08:51:54;;;;;;;2.42;2.27;;;;;;;23.82;65.81;99120.93;1710345;82;21185;-69
2022/08/20 08:54:23;;;;;;;2.45;2.25;;;;;;;23.83;65.16;99121.77;1735168;82;20943;-68
2022/08/20 08:56:51;;;;;;;2.40;2.02;;;;;;;23.80;65.88;99112.28;1735292;82;21003;-69
2022/08/20 08:59:18;;;;;;;2.87;2.00;;;;;;;23.76;66.51;99112.28;1735322;82;21042;-69
2022/08/20 09:01:49;;;;;;;3.92;1.80;;;;;;;23.77;65.72;99117.93;1735203;82;21511;-68
2022/08/20 09:04:17;;;;;;;6.10;1.87;;;;;;;23.88;65.25;99117.66;1735238;82;21123;-69
2022/08/20 09:06:43;;;;;;;4.28;2.20;;;;;;;24.03;64.94;99117.41;1735100;82;21081;-69
2022/08/20 09:09:23;;;;;;;2.42;1.77;;;;;;;24.15;65.17;99116.66;1735251;82;21019;-68
2022/08/20 09:11:53;;;;;;;2.02;1.82;;;;;;;24.21;65.17;99119.98;1735271;82;21431;-68
2022/08/20 09:14:23;;;;;;;2.27;1.80;;;;;;;24.26;64.11;99124.37;1735235;82;21447;-68
2022/08/20 09:16:49;;;;;;;2.17;1.98;;;;;;;24.24;62.66;99114.39;1735144;82;21107;-68
2022/08/20 09:19:16;;;;;;;2.67;1.90;;;;;;;24.22;62.69;99108.38;1735117;81;21109;-69
2022/08/20 09:21:42;;;;;;;3.25;2.10;;;;;;;24.16;63.26;99129.45;1735182;82;20931;-69
2022/08/20 09:24:09;;;;;;;2.17;2.08;;;;;;;24.02;64.42;99116.23;1735242;82;20967;-68
2022/08/20 09:26:35;;;;;;;3.17;2.17;;;;;;;23.94;65.00;99114.88;1735277;82;21091;-68
2022/08/20 09:29:02;;;;;;;5.17;2.25;;;;;;;23.94;65.38;99109.07;1735282;82;21134;-68
2022/08/20 09:31:29;;;;;;;2.80;2.47;;;;;;;24.05;64.30;99110.12;1735095;82;20995;-69
2022/08/20 09:33:55;;;;;;;4.40;2.58;;;;;;;24.19;64.23;99101.20;1735255;81;21014;-68
2022/08/20 09:36:22;;;;;;;2.90;2.45;;;;;;;24.27;63.85;99102.13;1735177;82;21464;-68
2022/08/20 09:38:48;;;;;;;4.15;2.98;;;;;;;24.31;63.91;99110.12;1735161;82;21038;-69
2022/08/20 09:41:15;;;;;;;3.45;3.02;;;;;;;24.31;63.33;99103.47;1735264;82;21214;-69
2022/08/20 09:43:41;;;;;;;3.85;3.52;;;;;;;24.31;63.38;99109.28;1735100;82;21427;-69
2022/08/20 09:46:08;;;;;;;3.92;3.62;;;;;;;24.31;63.54;99106.63;1735102;82;20943;-68
2022/08/20 09:48:35;;;;;;;3.52;3.20;;;;;;;24.17;63.26;99101.39;1735300;82;21022;-68
2022/08/20 09:51:01;;;;;;;4.58;4.17;;;;;;;23.98;63.64;99102.95;1735167;82;20999;-68
2022/08/20 09:53:28;;;;;;;7.97;4.05;;;;;;;23.81;64.62;99101.16;1735375;82;21038;-68
2022/08/20 09:55:55;;;;;;;4.12;3.77;;;;;;;23.77;64.80;99096.69;1710462;82;21057;-68
2022/08/20 09:58:50;;;;;;;3.90;3.58;;;;;;;23.83;64.44;99088.07;1735185;82;20978;-68
2022/08/20 10:01:19;;;;;;;4.87;3.67;;;;;;;23.94;64.63;99092.30;1735181;82;20983;-67
2022/08/20 10:03:47;;;;;;;3.90;3.60;;;;;;;24.07;63.80;99092.69;1710334;82;21061;-67
2022/08/20 10:06:18;;;;;;;6.60;3.70;;;;;;;24.14;62.70;99096.89;1735175;82;21191;-67
2022/08/20 10:08:46;;;;;;;4.65;4.25;;;;;;;24.14;63.21;99095.56;1735038;82;21000;-67
2022/08/20 10:11:12;;;;;;;5.60;5.10;;;;;;;24.07;63.87;99086.05;1735331;81;21422;-68
2022/08/20 10:13:39;;;;;;;5.15;4.62;;;;;;;24.09;63.83;99091.20;1735290;81;20960;-69
2022/08/20 10:16:06;;;;;;;5.62;4.28;;;;;;;24.19;63.33;99091.41;1735228;82;21058;-69
2022/08/20 10:18:34;;;;;;;5.15;4.20;;;;;;;24.22;61.93;99091.09;1735136;82;22031;-69
2022/08/20 10:21:00;;;;;;;5.00;3.40;;;;;;;24.16;61.96;99090.42;1735105;81;21080;-69
2022/08/20 10:23:27;;;;;;;4.10;3.80;;;;;;;24.17;62.70;99091.26;1735278;82;20999;-69
2022/08/20 10:25:54;;;;;;;4.60;4.20;;;;;;;24.19;61.54;99093.23;1735130;82;21065;-69
2022/08/20 10:28:21;;;;;;;4.00;3.55;;;;;;;24.17;62.18;99089.44;1735282;82;21454;-69
2022/08/20 10:30:47;;;;;;;3.42;3.12;;;;;;;24.22;62.17;99094.25;1735589;82;21127;-69
2022/08/20 10:33:14;;;;;;;3.85;3.55;;;;;;;24.31;61.00;99096.83;1735187;82;20995;-69
2022/08/20 10:35:41;;;;;;;4.42;4.08;;;;;;;24.38;59.98;99094.34;1710194;82;20940;-69
2022/08/20 10:38:07;;;;;;;3.30;3.00;;;;;;;24.45;60.12;99088.73;1735222;82;20999;-68
2022/08/20 10:40:34;;;;;;;2.52;2.33;;;;;;;24.54;59.30;99097.08;1735208;82;21050;-68
2022/08/20 10:43:01;;;;;;;2.42;2.22;;;;;;;24.58;58.28;99090.95;1735258;82;21759;-68
2022/08/20 10:45:28;;;;;;;3.60;3.30;;;;;;;24.59;58.54;99084.61;1735160;82;20943;-68
2022/08/20 10:48:00;;;;;;;3.90;3.60;;;;;;;24.58;57.91;99089.09;1735187;82;20983;-68
2022/08/20 10:50:27;;;;;;;3.67;3.37;;;;;;;24.50;58.65;99088.25;1734716;82;21046;-68
2022/08/20 10:52:53;;;;;;;4.58;3.58;;;;;;;24.41;58.95;99082.06;1734577;81;21090;-68
2022/08/20 10:55:19;;;;;;;3.90;3.50;;;;;;;24.49;59.46;99089.25;1734686;82;21080;-68
2022/08/20 10:57:46;;;;;;;3.87;3.58;;;;;;;24.68;59.17;99084.98;1734695;82;21009;-68
2022/08/20 11:00:15;;;;;;;4.03;3.72;;;;;;;24.89;57.63;99081.86;1734700;82;20935;-68
2022/08/20 11:02:42;;;;;;;3.55;3.25;;;;;;;25.05;57.30;99079.25;1734798;82;21006;-68
2022/08/20 11:05:09;;;;;;;3.37;3.08;;;;;;;25.08;56.94;99076.27;1716108;82;21451;-68
2022/08/20 11:07:41;;;;;;;3.50;3.20;;;;;;;24.98;56.88;99083.05;1734815;82;21149;-68
2022/08/20 11:10:08;;;;;;;3.08;2.87;;;;;;;24.91;57.82;99083.38;1734781;82;20955;-68
2022/08/20 11:12:35;;;;;;;3.22;2.98;;;;;;;24.87;56.96;99082.03;1734764;82;20959;-68
2022/08/20 11:15:03;;;;;;;5.53;2.60;;;;;;;24.81;56.85;99083.17;1734775;82;21011;-68
2022/08/20 11:17:33;;;;;;;3.40;3.10;;;;;;;24.79;56.90;99070.52;1734768;82;20927;-68
2022/08/20 11:20:00;;;;;;;5.17;3.08;;;;;;;24.90;57.00;99075.05;1734769;81;21160;-68
2022/08/20 11:22:27;;;;;;;3.05;2.75;;;;;;;25.14;56.79;99068.95;1734767;82;20987;-68
2022/08/20 11:24:53;;;;;;;3.92;3.25;;;;;;;25.41;55.86;99065.10;1734717;82;21038;-68
2022/08/20 11:27:28;;;;;;;3.60;3.30;;;;;;;25.67;55.67;99061.78;1734735;82;21443;-68
2022/08/20 11:29:54;;;;;;;3.98;3.67;;;;;;;25.85;54.91;99055.41;1734798;82;21006;-69
2022/08/20 11:32:21;;;;;;;4.92;3.45;;;;;;;25.91;54.04;99054.73;1734784;81;21881;-69
2022/08/20 11:34:48;;;;;;;3.55;3.25;;;;;;;25.81;53.66;99054.91;1734644;82;21100;-69
2022/08/20 11:37:16;;;;;;;3.17;2.87;;;;;;;25.67;54.23;99048.46;1715823;82;21021;-69
2022/08/20 11:39:43;;;;;;;3.02;2.83;;;;;;;25.61;53.91;99045.10;1734722;82;21111;-69
2022/08/20 11:42:09;;;;;;;3.33;2.70;;;;;;;25.61;52.75;99045.60;1734831;82;20959;-69